Latest Weather Observations for Miles

IDQ60801

Issued at 4:32 pm EST Tuesday 17 January 2017 (issued every 30 minutes, with the page automatically refreshed every 10 minutes)

About weather observations | Map of weather stations | Latest weather observations for QLD | Other Formats
Station Details ID: 042112 Name: MILES CONSTANCE STREET Lat: -26.66 Lon: 150.18 Height: 304.8 m
Data from the previous 72 hours. | See also: Recent months at Miles
Date/Time
EST
Temp
°C
App
Temp
°C
Dew
Point
°C
Rel
Hum
%
Delta-T
°C
Wind Press
QNH
hPa
Press
MSL
hPa
Rain since
9am
mm
Dir  Spd
km/h
Gust
km/h
Spd
kts
Gust
kts
17/04:30pm 35.5 34.8 14.2 28 13.3 SE 11 19 6 10 1013.4 - 0.0
17/04:00pm 35.3 35.2 15.0 29 12.8 E 9 19 5 10 1013.6 - 0.0
17/03:30pm 35.1 34.7 14.0 28 13.1 SE 9 17 5 9 1014.0 - 0.0
17/03:00pm 34.7 34.2 13.9 28 12.9 SE 9 19 5 10 1014.2 1012.3 0.0
17/02:30pm 35.3 34.6 14.3 28 13.1 NE 11 20 6 11 1014.5 - 0.0
17/02:00pm 33.7 33.4 13.2 29 12.5 NE 7 13 4 7 1014.9 - 0.0
17/01:30pm 34.2 33.1 13.1 28 12.9 ESE 11 17 6 9 1015.2 - 0.0
17/01:00pm 34.6 34.0 13.5 28 13.0 N 9 17 5 9 1015.5 - 0.0
17/12:30pm 33.4 33.0 13.0 29 12.4 ESE 7 13 4 7 1016.1 - 0.0
17/12:00pm 32.3 30.7 11.5 28 12.3 ENE 11 17 6 9 1016.6 1014.8 0.0
17/11:30am 32.3 32.4 14.5 34 11.0 WNW 7 19 4 10 1016.9 - 0.0
17/11:00am 30.7 29.9 15.1 38 9.7 NNE 13 19 7 10 1017.6 - 0.0
17/10:30am 29.9 30.3 16.4 44 8.5 ENE 9 15 5 8 1018.0 - 0.0
17/10:00am 29.2 29.5 17.1 48 7.7 NE 11 20 6 11 1018.4 - 0.0
17/09:30am 28.3 28.9 17.7 52 6.8 NE 11 19 6 10 1018.5 - 0.0
17/09:00am 27.4 28.0 17.7 55 6.2 N 11 17 6 9 1018.5 1016.7 0.0
17/08:30am 26.3 27.3 18.7 63 4.9 ENE 11 19 6 10 1018.6 - 0.0
17/08:00am 25.4 25.8 19.1 68 4.1 NNE 15 20 8 11 1018.6 - 0.0
17/07:30am 24.8 26.1 19.4 72 3.5 NE 11 20 6 11 1018.7 - 0.0
17/07:00am 23.2 24.6 19.5 80 2.4 N 11 17 6 9 1018.5 - 0.0
17/06:30am 23.1 25.3 19.7 81 2.2 N 7 11 4 6 1018.1 - 0.0
17/06:00am 22.4 24.2 19.6 84 1.8 NNE 9 13 5 7 1017.7 1015.8 0.0
17/05:30am 22.0 24.2 19.5 86 1.6 NNE 7 15 4 8 1017.4 - 0.0
17/05:00am 22.5 24.3 19.6 84 1.9 NNE 9 13 5 7 1017.0 - 0.0
17/04:30am 22.8 25.0 19.7 83 2.0 NNE 7 11 4 6 1016.8 - 0.0
17/04:00am 23.2 25.4 19.7 81 2.3 NNE 7 13 4 7 1016.3 - 0.0
17/03:30am 23.7 25.0 19.4 77 2.8 N 11 17 6 9 1015.9 - 0.0
17/03:00am 23.7 25.7 20.0 80 2.4 N 9 15 5 8 1015.9 1014.1 0.0
17/02:30am 24.1 25.6 19.8 77 2.8 N 11 19 6 10 1016.0 - 0.0
17/02:00am 24.5 26.0 19.7 74 3.1 N 11 20 6 11 1015.9 - 0.0
17/01:30am 25.0 26.1 19.6 72 3.5 N 13 24 7 13 1015.8 - 0.0
17/01:00am 25.5 25.6 19.2 68 4.1 N 17 26 9 14 1015.7 - 0.0
17/12:30am 25.8 26.2 19.0 66 4.4 NNE 15 24 8 13 1015.8 - 0.0
17/12:00am 26.2 26.2 18.2 61 5.1 NNE 15 22 8 12 1015.9 1014.1 0.0
 
Date/Time
EST
Temp
°C
App
Temp
°C
Dew
Point
°C
Rel
Hum
%
Delta-T
°C
Wind Press
QNH
hPa
Press
MSL
hPa
Rain since
9am
mm
Dir  Spd
km/h
Gust
km/h
Spd
kts
Gust
kts
16/11:30pm 26.8 26.6 17.7 57 5.8 NNE 15 20 8 11 1015.8 - 0.0
16/11:00pm 27.3 26.6 17.4 54 6.3 NNE 17 24 9 13 1015.8 - 0.0
16/10:30pm 27.7 26.8 16.9 51 6.8 NNE 17 28 9 15 1015.8 - 0.0
16/10:00pm 28.3 27.8 16.0 47 7.7 NE 13 24 7 13 1015.5 - 0.0
16/09:30pm 28.1 28.4 16.1 48 7.5 NE 9 13 5 7 1015.2 - 0.0
16/09:00pm 28.4 29.5 17.2 50 7.1 NE 7 11 4 6 1015.1 1013.3 0.0
16/08:30pm 29.2 30.0 16.3 45 8.1 NE 7 11 4 6 1014.8 - 0.0
16/08:00pm 29.8 30.4 15.9 43 8.7 NNE 7 15 4 8 1014.6 - 0.0
16/07:30pm 30.9 30.1 15.2 38 9.8 ENE 13 17 7 9 1014.4 - 0.0
16/07:00pm 31.7 30.3 14.6 35 10.6 ENE 15 20 8 11 1014.1 - 0.0
16/06:30pm 32.6 32.1 15.0 34 11.0 E 11 19 6 10 1013.5 - 0.0
16/06:00pm 33.5 33.0 15.0 32 11.6 ENE 11 20 6 11 1013.1 1011.3 0.0
16/05:30pm 33.9 32.7 15.1 32 11.8 E 15 28 8 15 1012.7 - 0.0
16/05:00pm 33.8 32.7 15.4 33 11.6 ENE 15 22 8 12 1012.4 - 0.0
16/04:30pm 34.2 33.6 16.6 35 11.3 ENE 15 20 8 11 1012.2 - 0.0
16/04:00pm 34.3 34.1 16.8 35 11.3 E 13 20 7 11 1012.2 - 0.0
16/03:30pm 33.9 33.8 17.0 36 10.9 E 13 20 7 11 1012.2 - 0.0
16/03:00pm 34.2 33.9 18.2 38 10.5 E 17 28 9 15 1012.3 1010.5 0.0
16/02:30pm 33.4 34.3 18.5 41 9.8 NE 11 20 6 11 1012.5 - 0.0
16/02:00pm 32.2 32.4 18.5 44 9.0 ENE 15 26 8 14 1012.8 - 0.0
16/01:30pm 32.7 33.0 18.7 43 9.2 ENE 15 24 8 13 1013.1 - 0.0
16/01:00pm 32.6 34.3 19.3 45 8.8 NE 9 19 5 10 1013.4 - 0.0
16/12:30pm 31.7 32.4 18.9 46 8.4 NNE 13 22 7 12 1013.7 - 0.0
16/12:00pm 30.8 32.3 20.5 54 6.9 NE 13 24 7 13 1014.1 1012.2 0.0
16/11:30am 31.2 32.2 20.3 52 7.3 NE 15 22 8 12 1014.4 - 0.0
16/11:00am 30.0 30.4 19.9 54 6.7 NE 17 26 9 14 1014.6 - 0.0
16/10:30am 29.6 30.3 20.5 58 6.1 NE 17 28 9 15 1014.9 - 0.0
16/10:00am 28.8 30.1 20.9 62 5.3 NNE 15 26 8 14 1015.0 - 0.0
16/09:30am 27.7 29.3 21.5 69 4.2 NNE 15 22 8 12 1015.2 - 0.0
16/09:00am 26.7 28.0 21.7 74 3.4 NNE 17 26 9 14 1015.3 1013.5 21.6
16/08:30am 26.4 27.9 22.0 77 3.0 NNE 17 26 9 14 1015.1 - 21.4
16/08:00am 26.0 28.1 22.5 81 2.4 NE 15 24 8 13 1015.1 - 21.4
16/07:30am 25.2 27.6 22.2 83 2.0 NE 13 20 7 11 1014.9 - 21.4
16/07:00am 25.3 27.8 22.4 84 2.0 NE 13 19 7 10 1014.5 - 21.4
16/06:30am 24.3 27.2 22.4 89 1.3 NE 11 19 6 10 1014.1 - 21.4
16/06:00am 23.9 27.5 22.4 91 1.0 NE 7 13 4 7 1013.7 1011.9 21.4
16/05:30am 23.2 26.7 21.9 92 0.9 NNE 6 11 3 6 1013.3 - 21.4
16/05:00am 23.0 26.3 21.8 93 0.8 NE 7 13 4 7 1012.8 - 21.4
16/04:30am 22.7 25.9 21.7 94 0.7 NNE 7 15 4 8 1012.5 - 21.4
16/04:00am 22.8 25.6 21.6 93 0.8 NE 9 15 5 8 1012.2 - 21.4
16/03:30am 22.9 26.2 21.9 94 0.7 NE 7 11 4 6 1012.3 - 21.4
16/03:00am 22.9 27.0 22.2 96 0.5 N 4 6 2 3 1011.8 1009.9 21.4
16/02:30am 23.0 27.8 22.1 95 0.6 CALM 0 0 0 0 1011.8 - 21.4
16/02:00am 23.5 27.0 22.2 92 0.9 NNE 7 11 4 6 1012.2 - 21.4
16/01:30am 23.7 26.6 22.5 93 0.8 NNE 11 15 6 8 1012.6 - 21.4
16/01:00am 23.8 27.1 22.6 93 0.8 NE 9 13 5 7 1012.8 - 21.4
16/12:30am 23.9 27.3 22.7 93 0.8 ENE 9 11 5 6 1013.2 - 21.4
16/12:00am 24.0 28.1 23.0 94 0.7 ENE 6 9 3 5 1013.1 1011.3 21.4
 
Date/Time
EST
Temp
°C
App
Temp
°C
Dew
Point
°C
Rel
Hum
%
Delta-T
°C
Wind Press
QNH
hPa
Press
MSL
hPa
Rain since
9am
mm
Dir  Spd
km/h
Gust
km/h
Spd
kts
Gust
kts
15/11:30pm 23.7 28.8 22.7 94 0.7 CALM 0 6 0 3 1012.7 - 21.4
15/11:00pm 23.6 28.7 22.6 94 0.7 CALM 0 0 0 0 1012.1 - 21.4
15/10:30pm 23.8 27.5 22.6 93 0.8 NNE 7 15 4 8 1012.5 - 21.4
15/10:00pm 24.1 27.6 22.9 93 0.8 NNE 9 17 5 9 1012.8 - 21.4
15/09:30pm 24.7 28.3 23.1 91 1.1 E 9 11 5 6 1013.0 - 20.8
15/09:00pm 24.5 28.1 23.0 91 1.0 N 9 13 5 7 1012.2 1010.4 20.8
15/08:30pm 24.4 27.0 22.6 90 1.2 N 13 19 7 10 1011.8 - 20.8
15/08:00pm 23.8 26.8 22.6 93 0.8 N 11 15 6 8 1012.4 - 20.8
15/07:30pm 23.7 27.0 22.5 93 0.8 WSW 9 17 5 9 1012.5 - 20.8
15/07:00pm 23.9 27.5 23.0 95 0.6 W 9 13 5 7 1011.4 - 19.8
15/06:30pm 25.1 29.3 23.5 91 1.1 N 7 11 4 6 1010.0 - 9.0
15/06:00pm 25.0 28.3 23.8 93 0.8 NNE 13 17 7 9 1009.1 1007.3 9.0
15/05:30pm 25.2 29.5 23.6 91 1.1 ENE 7 13 4 7 1008.4 - 8.8
15/05:00pm 24.9 27.4 23.2 90 1.2 E 15 28 8 15 1009.2 - 8.0
15/04:56pm 25.2 27.2 23.0 87 1.5 E 17 30 9 16 1009.3 - 5.8
15/04:30pm 30.2 31.0 21.4 59 6.0 ESE 19 26 10 14 1008.0 - 0.0
15/04:00pm 31.5 33.0 21.2 54 7.0 S 15 24 8 13 1007.5 - 0.0
15/03:30pm 34.4 36.3 20.6 44 9.4 ESE 11 17 6 9 1007.3 - 0.0
15/03:00pm 35.2 36.4 19.8 40 10.4 SE 13 22 7 12 1007.4 1005.5 0.0
15/02:30pm 34.5 36.0 19.8 42 9.9 SE 11 20 6 11 1008.0 - 0.0
15/02:00pm 34.4 36.8 20.9 45 9.2 ENE 9 13 5 7 1008.5 - 0.0
15/01:30pm 34.2 37.5 21.4 47 8.8 WSW 6 11 3 6 1009.1 - 0.0
15/01:00pm 33.1 36.6 22.1 52 7.6 S 7 11 4 6 1009.6 - 0.0
15/12:30pm 31.1 35.0 22.6 60 5.9 E 6 9 3 5 1010.0 - 0.0
15/12:00pm 30.7 34.5 22.4 61 5.7 S 6 9 3 5 1010.0 1008.2 0.0
15/11:30am 30.1 34.2 22.9 65 5.0 S 6 9 3 5 1010.2 - 0.0
15/11:00am 30.6 34.4 22.8 63 5.4 SSE 7 13 4 7 1010.2 - 0.0
15/10:30am 30.3 33.6 22.6 63 5.3 SE 9 15 5 8 1010.3 - 0.0
15/10:00am 29.5 33.2 23.2 69 4.4 SSE 9 15 5 8 1010.5 - 0.0
15/09:30am 28.4 31.6 23.0 72 3.7 S 11 15 6 8 1010.5 - 0.0
15/09:00am 27.3 31.1 23.5 80 2.6 S 9 13 5 7 1010.6 1008.7 3.8
15/08:30am 26.4 30.7 23.7 85 1.9 SSW 7 11 4 6 1010.7 - 3.8
15/08:00am 25.8 30.6 23.5 87 1.6 S 4 7 2 4 1010.6 - 3.8
15/07:30am 25.3 29.8 23.6 90 1.2 SSW 6 9 3 5 1010.5 - 3.8
15/07:00am 24.8 29.0 23.5 92 0.9 S 7 9 4 5 1010.1 - 3.8
15/06:30am 24.6 29.2 23.1 91 1.0 SSW 4 7 2 4 1009.8 - 3.8
15/06:00am 24.4 28.6 23.2 93 0.8 SSW 6 7 3 4 1009.6 1007.8 3.8
15/05:30am 24.3 29.6 23.1 93 0.8 CALM 0 0 0 0 1009.5 - 3.8
15/05:00am 24.3 29.2 23.0 92 0.9 WSW 2 7 1 4 1009.4 - 3.8
15/04:30am 24.2 29.6 23.2 94 0.7 CALM 0 0 0 0 1009.3 - 3.8
15/04:00am 24.3 29.7 23.3 94 0.7 CALM 0 6 0 3 1009.3 - 3.8
15/03:30am 24.2 28.7 23.0 93 0.8 S 4 7 2 4 1009.1 - 3.8
15/03:00am 24.1 29.3 22.8 92 0.9 CALM 0 0 0 0 1008.5 1006.6 3.8
15/02:30am 24.0 29.2 22.8 93 0.8 CALM 0 0 0 0 1008.3 - 3.8
15/02:00am 23.8 27.8 22.8 94 0.7 NW 6 7 3 4 1008.7 - 3.6
15/01:30am 23.8 27.3 22.8 94 0.7 N 9 15 5 8 1008.9 - 3.6
15/01:00am 24.0 29.3 23.0 94 0.7 CALM 0 0 0 0 1008.4 - 3.6
15/12:30am 24.1 28.5 22.8 92 0.9 SW 4 7 2 4 1008.6 - 3.6
15/12:00am 24.2 29.0 22.9 92 0.9 S 2 7 1 4 1009.7 1007.9 2.8
 
Date/Time
EST
Temp
°C
App
Temp
°C
Dew
Point
°C
Rel
Hum
%
Delta-T
°C
Wind Press
QNH
hPa
Press
MSL
hPa
Rain since
9am
mm
Dir  Spd
km/h
Gust
km/h
Spd
kts
Gust
kts
14/11:30pm 24.3 26.8 22.5 90 1.2 SE 13 20 7 11 1009.3 - 1.6
14/11:00pm 26.4 29.1 22.9 81 2.4 ESE 13 28 7 15 1010.1 - 0.0
14/10:30pm 26.9 30.5 23.1 80 2.6 ESE 9 13 5 7 1010.5 - 0.0
14/10:00pm 26.4 30.6 23.4 83 2.1 SE 7 13 4 7 1009.6 - 0.0
14/09:30pm 26.5 29.9 23.3 82 2.2 SW 11 20 6 11 1009.2 - 0.0
14/09:00pm 29.3 29.4 21.8 64 5.1 WSW 24 41 13 22 1008.2 1006.3 0.0
14/08:30pm 31.9 32.3 19.9 49 8.0 W 17 32 9 17 1007.2 - 0.0
14/08:00pm 32.1 33.6 19.7 48 8.3 WNW 11 19 6 10 1006.2 - 0.0
14/07:30pm 32.3 34.0 19.4 46 8.6 NW 9 26 5 14 1006.2 - 0.0
14/07:00pm 32.5 36.5 21.4 52 7.6 WSW 2 6 1 3 1005.5 - 0.0
14/06:30pm 33.7 36.9 18.9 41 9.8 CALM 0 0 0 0 1005.0 - 0.0
14/06:00pm 33.9 35.9 19.2 42 9.8 WSW 7 13 4 7 1005.0 1003.1 0.0
14/05:30pm 33.8 34.1 20.5 45 9.0 WSW 19 32 10 17 1004.6 - 0.0
14/05:00pm 37.2 39.6 20.0 36 11.7 NNW 7 9 4 5 1004.0 - 0.0

Other Formats:

Comma delimited format used in spreadsheet applications
http://www.bom.gov.au/fwo/IDQ60801/IDQ60801.95529.axf

JavaScript Object Notation format (JSON) in row-major order
http://www.bom.gov.au/fwo/IDQ60801/IDQ60801.95529.json